createdAt,value
2023-03-22T00:02:18.185Z,33.45
2023-03-22T00:04:46.324Z,29.20
2023-03-22T00:07:14.280Z,35.65
2023-03-22T00:09:42.319Z,32.88
2023-03-22T00:12:10.390Z,35.47
2023-03-22T00:14:38.323Z,33.05
2023-03-22T00:17:06.346Z,38.50
2023-03-22T00:19:36.012Z,35.50
2023-03-22T00:22:06.380Z,35.70
2023-03-22T00:24:34.337Z,28.45
2023-03-22T00:27:02.358Z,42.88
2023-03-22T00:29:30.969Z,38.63
2023-03-22T00:31:59.169Z,30.50
2023-03-22T00:34:28.185Z,38.90
2023-03-22T00:36:57.577Z,26.10
2023-03-22T00:39:27.051Z,33.95
2023-03-22T00:41:55.033Z,32.03
2023-03-22T00:44:23.048Z,32.97
2023-03-22T00:46:51.497Z,37.30
2023-03-22T00:49:19.613Z,36.17
2023-03-22T00:51:47.715Z,31.75
2023-03-22T00:54:17.422Z,35.05
2023-03-22T00:56:46.391Z,35.05
2023-03-22T00:59:15.093Z,29.98
2023-03-22T01:01:44.920Z,31.65
2023-03-22T01:04:18.277Z,17.15
2023-03-22T01:06:47.077Z,23.05
2023-03-22T01:09:16.425Z,30.02
2023-03-22T01:11:44.925Z,23.77
2023-03-22T01:14:13.997Z,35.83
2023-03-22T01:16:42.173Z,34.10
2023-03-22T01:19:10.216Z,26.63
2023-03-22T01:21:38.206Z,31.33
2023-03-22T01:24:06.600Z,24.95
2023-03-22T01:26:36.085Z,22.45
2023-03-22T01:29:04.641Z,23.42
2023-03-22T01:31:32.866Z,24.45
2023-03-22T01:34:01.254Z,30.55
2023-03-22T01:36:29.243Z,31.42
2023-03-22T01:38:57.419Z,35.80
2023-03-22T01:41:25.944Z,33.00
2023-03-22T01:44:12.785Z,36.40
2023-03-22T01:46:41.241Z,34.42
2023-03-22T01:49:12.752Z,37.80
2023-03-22T01:51:43.689Z,35.60
2023-03-22T01:54:17.447Z,28.70
2023-03-22T01:56:46.053Z,24.80
2023-03-22T01:59:16.739Z,32.25
2023-03-22T02:01:47.130Z,34.65
2023-03-22T02:04:17.658Z,30.23
2023-03-22T02:06:47.169Z,35.70
2023-03-22T02:09:18.355Z,26.23
2023-03-22T02:11:51.429Z,36.17
2023-03-22T02:14:49.027Z,36.88
2023-03-22T02:17:32.198Z,36.00
2023-03-22T02:20:38.794Z,39.38
2023-03-22T02:23:54.810Z,31.35
2023-03-22T02:26:59.410Z,35.50
2023-03-22T02:29:39.735Z,30.33
2023-03-22T02:32:38.781Z,32.25
2023-03-22T02:35:42.236Z,23.30
2023-03-22T02:38:58.085Z,24.13
2023-03-22T02:41:38.618Z,30.08
2023-03-22T02:44:15.418Z,31.15
2023-03-22T02:46:47.983Z,31.58
2023-03-22T02:49:22.926Z,33.15
2023-03-22T02:51:58.569Z,35.55
2023-03-22T02:54:31.405Z,33.13
2023-03-22T02:57:06.589Z,25.00
2023-03-22T02:59:38.695Z,18.58
2023-03-22T03:02:08.279Z,24.60
2023-03-22T03:04:39.238Z,31.35
2023-03-22T03:07:10.296Z,27.02
2023-03-22T03:09:41.335Z,32.17
2023-03-22T03:12:15.955Z,21.30
2023-03-22T03:14:43.971Z,23.60
2023-03-22T03:17:23.589Z,24.98
2023-03-22T03:20:08.382Z,29.70
2023-03-22T03:22:51.106Z,37.28
2023-03-22T03:25:25.573Z,42.33
2023-03-22T03:28:03.653Z,30.88
2023-03-22T03:30:38.981Z,32.38
2023-03-22T03:33:10.808Z,32.88
2023-03-22T03:35:44.567Z,34.15
2023-03-22T03:38:17.524Z,31.52
2023-03-22T03:40:49.350Z,26.45
2023-03-22T03:43:20.070Z,28.35
2023-03-22T03:45:48.901Z,40.75
2023-03-22T03:48:21.403Z,21.15
2023-03-22T03:50:53.556Z,23.08
2023-03-22T03:53:21.473Z,26.10
2023-03-22T03:55:49.796Z,30.23
2023-03-22T03:58:19.412Z,32.08
2023-03-22T04:00:48.656Z,28.70
2023-03-22T04:03:16.682Z,22.52
2023-03-22T04:05:45.259Z,21.15
2023-03-22T04:08:13.347Z,20.80
2023-03-22T04:10:42.141Z,16.42
2023-03-22T04:13:10.364Z,37.80
2023-03-22T04:15:39.751Z,29.90
2023-03-22T04:18:09.754Z,35.67
2023-03-22T04:20:39.316Z,37.45
2023-03-22T04:23:07.715Z,21.90
2023-03-22T04:25:37.917Z,23.25
2023-03-22T04:28:07.535Z,21.33
2023-03-22T04:30:36.169Z,28.85
2023-03-22T04:33:07.963Z,34.70
2023-03-22T04:35:36.919Z,20.83
2023-03-22T04:38:04.863Z,31.67
2023-03-22T04:40:36.640Z,31.77
2023-03-22T04:43:04.900Z,27.95
2023-03-22T04:45:35.967Z,28.75
2023-03-22T04:48:07.876Z,39.85
2023-03-22T04:50:35.783Z,37.60
2023-03-22T04:53:03.770Z,37.30
2023-03-22T04:55:31.632Z,32.70
2023-03-22T04:57:59.823Z,16.95
2023-03-22T05:00:30.501Z,24.55
2023-03-22T05:02:58.922Z,27.95
2023-03-22T05:05:28.593Z,29.00
2023-03-22T05:07:56.913Z,20.70
2023-03-22T05:10:24.794Z,28.17
2023-03-22T05:12:53.054Z,30.05
2023-03-22T05:15:20.925Z,22.55
2023-03-22T05:17:49.284Z,38.42
2023-03-22T05:20:17.249Z,38.00
2023-03-22T05:22:50.520Z,38.15
2023-03-22T05:25:18.472Z,39.50
2023-03-22T05:27:46.541Z,33.65
2023-03-22T05:30:15.637Z,37.33
2023-03-22T05:32:44.155Z,34.97
2023-03-22T05:35:12.285Z,34.22
2023-03-22T05:37:40.778Z,30.98
2023-03-22T05:40:11.099Z,32.78
2023-03-22T05:42:39.098Z,39.55
2023-03-22T05:45:08.053Z,47.10
2023-03-22T05:47:36.196Z,31.38
2023-03-22T05:50:04.202Z,37.25
2023-03-22T05:52:32.110Z,32.58
2023-03-22T05:55:00.784Z,38.67
2023-03-22T05:57:30.527Z,30.33
2023-03-22T05:59:59.054Z,31.25
2023-03-22T06:02:27.174Z,25.95
2023-03-22T06:04:55.145Z,35.30
2023-03-22T06:07:23.356Z,40.00
2023-03-22T06:09:51.265Z,37.55
2023-03-22T06:12:22.698Z,34.08
2023-03-22T06:14:52.175Z,30.23
2023-03-22T06:17:20.268Z,29.73
2023-03-22T06:19:48.600Z,34.65
2023-03-22T06:22:16.811Z,40.55
2023-03-22T06:24:45.612Z,27.55
2023-03-22T06:27:14.248Z,25.45
2023-03-22T06:29:42.281Z,30.98
2023-03-22T06:32:12.147Z,35.35
2023-03-22T06:34:40.237Z,30.75
2023-03-22T06:37:08.584Z,32.45
2023-03-22T06:39:36.467Z,33.20
2023-03-22T06:42:04.795Z,36.97
2023-03-22T06:44:32.720Z,32.08
2023-03-22T06:47:00.737Z,36.75
2023-03-22T06:49:31.510Z,32.05
2023-03-22T06:51:59.449Z,38.72
2023-03-22T06:54:27.807Z,34.30
2023-03-22T06:56:55.734Z,31.52
2023-03-22T06:59:24.044Z,25.27
2023-03-22T07:01:52.319Z,35.53
2023-03-22T07:04:20.511Z,25.83
2023-03-22T07:06:50.053Z,27.60
2023-03-22T07:09:18.354Z,26.85
2023-03-22T07:11:46.351Z,26.05
2023-03-22T07:14:14.432Z,29.15
2023-03-22T07:16:42.398Z,25.38
2023-03-22T07:19:10.509Z,21.73
2023-03-22T07:21:38.773Z,20.92
2023-03-22T07:24:09.172Z,24.33
2023-03-22T07:26:39.109Z,25.05
2023-03-22T07:29:07.460Z,22.13
2023-03-22T07:31:36.758Z,22.83
2023-03-22T07:34:05.299Z,19.92
2023-03-22T07:36:33.777Z,23.52
2023-03-22T07:39:01.733Z,16.85
2023-03-22T07:41:40.314Z,21.30
2023-03-22T07:44:26.128Z,12.30
2023-03-22T07:46:54.032Z,19.25
2023-03-22T07:49:22.202Z,24.70
2023-03-22T07:51:50.137Z,20.65
2023-03-22T07:54:32.446Z,18.60
2023-03-22T07:57:03.087Z,17.83
2023-03-22T07:59:31.278Z,22.63
2023-03-22T08:01:59.286Z,22.67
2023-03-22T08:04:27.867Z,17.63
2023-03-22T08:06:58.626Z,27.40
2023-03-22T08:09:27.285Z,22.15
2023-03-22T08:11:55.575Z,23.67
2023-03-22T08:14:35.664Z,22.55
2023-03-22T08:17:04.965Z,21.23
2023-03-22T08:19:33.783Z,24.55
2023-03-22T08:22:02.045Z,21.58
2023-03-22T08:24:30.295Z,17.45
2023-03-22T08:26:58.337Z,22.27
2023-03-22T08:29:27.772Z,15.02
2023-03-22T08:31:56.131Z,19.02
2023-03-22T08:34:24.419Z,20.05
2023-03-22T08:36:52.492Z,14.35
2023-03-22T08:39:21.478Z,12.70
2023-03-22T08:41:49.480Z,18.52
2023-03-22T08:44:17.712Z,15.02
2023-03-22T08:46:47.315Z,12.45
2023-03-22T08:49:16.756Z,24.60
2023-03-22T08:51:45.135Z,12.38
2023-03-22T08:54:13.681Z,18.58
2023-03-22T08:56:41.853Z,16.35
2023-03-22T08:59:10.911Z,18.25
2023-03-22T09:01:39.044Z,11.90
2023-03-22T09:04:10.726Z,10.80
2023-03-22T09:06:43.129Z,13.70
2023-03-22T09:09:11.132Z,10.77
2023-03-22T09:11:41.302Z,16.13
2023-03-22T09:14:09.732Z,10.30
2023-03-22T09:16:37.981Z,16.90
2023-03-22T09:19:06.654Z,15.80
2023-03-22T09:21:36.530Z,23.80
2023-03-22T09:24:04.503Z,18.75
2023-03-22T09:26:32.780Z,16.13
2023-03-22T09:29:01.097Z,18.48
2023-03-22T09:31:29.267Z,22.98
2023-03-22T09:33:57.562Z,31.25
2023-03-22T09:36:25.657Z,26.88
2023-03-22T09:38:54.972Z,25.60
2023-03-22T09:41:26.427Z,28.25
2023-03-22T09:43:58.294Z,24.05
2023-03-22T09:46:32.586Z,17.90
2023-03-22T09:49:03.012Z,26.60
2023-03-22T09:51:39.863Z,28.40
2023-03-22T09:54:15.583Z,27.83
2023-03-22T09:56:46.051Z,33.60
2023-03-22T09:59:19.269Z,25.00
2023-03-22T10:01:52.907Z,24.33
2023-03-22T10:04:43.498Z,21.33
2023-03-22T10:07:22.335Z,22.20
2023-03-22T10:10:00.658Z,21.15
2023-03-22T10:12:32.853Z,23.33
2023-03-22T10:15:06.869Z,29.30
2023-03-22T10:17:37.578Z,27.33
2023-03-22T10:20:09.685Z,29.35
2023-03-22T10:22:41.948Z,18.42
2023-03-22T10:25:18.315Z,25.52
2023-03-22T10:27:49.892Z,35.72
2023-03-22T10:30:22.047Z,21.92
2023-03-22T10:32:58.379Z,21.50
2023-03-22T10:35:27.116Z,21.25
2023-03-22T10:37:57.262Z,15.70
2023-03-22T10:40:29.863Z,34.92
2023-03-22T10:43:02.221Z,28.73
2023-03-22T10:45:33.069Z,32.13
2023-03-22T10:48:05.361Z,26.15
2023-03-22T10:50:36.648Z,32.67
2023-03-22T10:53:12.866Z,21.05
2023-03-22T10:55:43.619Z,11.30
2023-03-22T10:58:16.931Z,15.05
2023-03-22T11:00:47.190Z,24.38
2023-03-22T11:03:28.762Z,28.08
2023-03-22T11:06:01.969Z,30.48
2023-03-22T11:08:30.028Z,28.33
2023-03-22T11:11:00.371Z,32.35
2023-03-22T11:13:29.498Z,32.63
2023-03-22T11:16:02.907Z,32.88
2023-03-22T11:18:32.946Z,31.88
2023-03-22T11:21:05.932Z,31.38
2023-03-22T11:23:35.648Z,32.97
2023-03-22T11:26:10.223Z,30.20
2023-03-22T11:28:48.709Z,28.67
2023-03-22T11:31:18.687Z,29.75
2023-03-22T11:33:56.800Z,23.40
2023-03-22T11:36:25.452Z,35.00
2023-03-22T11:38:59.156Z,32.35
2023-03-22T11:41:31.221Z,18.67
2023-03-22T11:44:03.102Z,15.88
2023-03-22T11:46:32.371Z,13.23
2023-03-22T11:49:04.281Z,13.02
2023-03-22T11:51:36.140Z,15.80
2023-03-22T11:54:09.195Z,17.63
2023-03-22T11:56:44.250Z,12.38
2023-03-22T11:59:16.676Z,18.70
2023-03-22T12:01:52.224Z,21.05
2023-03-22T12:04:25.636Z,11.77
2023-03-22T12:06:56.634Z,17.92
2023-03-22T12:09:30.110Z,16.67
2023-03-22T12:12:03.115Z,22.58
2023-03-22T12:14:36.051Z,17.90
2023-03-22T12:17:09.104Z,16.08
2023-03-22T12:19:51.218Z,11.65
2023-03-22T12:22:22.983Z,11.55
2023-03-22T12:24:50.964Z,20.55
2023-03-22T12:27:24.255Z,18.58
2023-03-22T12:29:58.322Z,17.42
2023-03-22T12:32:29.947Z,18.63
2023-03-22T12:35:14.108Z,18.13
2023-03-22T12:37:48.852Z,20.50
2023-03-22T12:40:24.029Z,21.23
2023-03-22T12:43:00.674Z,15.40
2023-03-22T12:45:33.356Z,20.45
2023-03-22T12:48:07.618Z,19.15
2023-03-22T12:50:40.485Z,20.70
2023-03-22T12:53:12.776Z,22.45
2023-03-22T12:55:42.787Z,19.45
2023-03-22T12:58:22.746Z,16.33
2023-03-22T13:00:56.236Z,18.13
2023-03-22T13:03:28.925Z,18.98
2023-03-22T13:06:06.507Z,18.35
2023-03-22T13:09:16.153Z,12.77
2023-03-22T13:11:46.371Z,16.95
2023-03-22T13:14:57.711Z,15.70
2023-03-22T13:17:45.164Z,15.32
2023-03-22T13:20:31.614Z,11.40
2023-03-22T13:23:06.291Z,18.05
2023-03-22T13:25:38.459Z,13.73
2023-03-22T13:28:24.727Z,14.63
2023-03-22T13:30:55.930Z,17.50
2023-03-22T13:33:28.243Z,30.08
2023-03-22T13:35:59.094Z,29.67
2023-03-22T13:38:29.262Z,19.98
2023-03-22T13:41:05.988Z,21.52
2023-03-22T13:43:36.883Z,21.02
2023-03-22T13:46:30.294Z,16.92
2023-03-22T13:49:18.255Z,17.25
2023-03-22T13:51:46.686Z,21.52
2023-03-22T13:54:24.042Z,24.15
2023-03-22T13:57:00.823Z,16.75
2023-03-22T13:59:33.988Z,18.85
2023-03-22T14:02:18.504Z,15.82
2023-03-22T14:04:50.235Z,19.33
2023-03-22T14:07:25.209Z,9.02
2023-03-22T14:09:57.169Z,16.27
2023-03-22T14:12:32.406Z,13.63
2023-03-22T14:15:05.171Z,19.70
2023-03-22T14:17:43.131Z,15.07
2023-03-22T14:20:16.396Z,19.85
